• Join FlightAware (Why Join?)
  • Login
  • US Flag 
Rudolph Flight #1: Arrived! 
04:53AM EST


 

Airport Tracker/Info


-or-


 

Live Flight TrackerFlight Track Log ✈ N400PU ✈ 06-Dec-2013 ✈ KPNE - KLAF

Flight Track Log - Related Links

Times and Time Zones

All times are in EST time to prevent confusion due to time zone crossing. See the N400PU flight status page for this flight to view local times or setup timezone preferences in your user account.

Time Position Orientation Groundspeed Altitude Reporting Facility
EST Latitude Longitude Course Direction KTS MPH feet Rate Location/Type
08:20AM 40.1000 -75.0167 339° North 159 183 1,100  Level Philadelphia TRACON
08:21AM 40.1333 -75.0333 339° North 195 224 2,200 1,740 Climbing Philadelphia TRACON
08:22AM 40.1833 -75.0500 346° North 242 278 4,000 2,400 Climbing Philadelphia TRACON
08:23AM 40.2000 -75.1000 294° West 217 250 6,800 1,620 Climbing Philadelphia TRACON
08:24AM 40.1333 -75.1000 180° South 273 314 7,300 1,500 Climbing Philadelphia TRACON
08:25AM 40.0667 -75.1167 191° South 257 296 9,800 1,320 Climbing Philadelphia TRACON
08:26AM 39.9833 -75.1333 189° South 262 302 10,000 60 Climbing Philadelphia TRACON
08:27AM 39.9500 -75.2000 237° Southwest 245 282 10,000  Level Philadelphia TRACON
08:28AM 39.9333 -75.3000 258° West 299 344 10,000  Level Philadelphia TRACON
08:29AM 39.9333 -75.4000 270° West 285 328 10,000  Level Philadelphia TRACON
08:30AM 39.9236 -75.5347 265° West 293 337 10,100 660 Climbing New York Center
08:31AM 39.9217 -75.6294 268° West 293 337 11,600 2,100 Climbing New York Center
08:32AM 39.9228 -75.7542 271° West 305 351 14,300 2,100 Climbing New York Center
08:33AM 39.9231 -75.8461 270° West 305 351 15,900 1,320 Climbing New York Center
08:34AM 39.9244 -75.9600 271° West 291 335 17,000 960 Climbing New York Center
08:35AM 39.9258 -76.0656 271° West 291 335 17,900 900 Climbing New York Center
08:36AM 39.9272 -76.1714 271° West 291 335 18,800 900 Climbing New York Center
08:37AM 39.9283 -76.2853 271° West 302 348 19,800 840 Climbing New York Center
08:38AM 39.9506 -76.3897 286° West 302 348 20,500 600 Climbing New York Center
08:39AM 39.9764 -76.5003 287° West 307 353 21,000 600 Climbing New York Center
08:40AM 39.9981 -76.6133 284° West 317 365 21,700 900 Climbing New York Center
08:41AM 40.0194 -76.7261 284° West 322 371 22,900 1,200 Climbing New York Center
08:42AM 40.0431 -76.8367 286° West 322 371 24,200 1,140 Climbing New York Center
08:43AM 40.0622 -76.9494 283° West 327 376 25,200 960 Climbing New York Center
08:44AM 40.0664 -77.0667 273° West 322 371 26,200 1,020 Climbing New York Center
08:45AM 40.0706 -77.1811 273° West 322 371 27,300 1,020 Climbing New York Center
08:46AM 40.0769 -77.2956 274° West 322 371 28,300 900 Climbing New York Center
08:47AM 40.0808 -77.4100 273° West 322 371 29,200 900 Climbing New York Center
08:48AM 40.0850 -77.5242 273° West 322 371 30,200 960 Climbing New York Center
08:50AM 40.0944 -77.6978 274° West 310 357 31,900 1,020 Climbing Cleveland Center
08:51AM 40.1078 -77.8053 279° West 303 349 33,000 1,020 Climbing Cleveland Center
08:52AM 40.1264 -77.9203 282° West 300 345 34,100 960 Climbing Cleveland Center
08:53AM 40.1378 -78.0267 278° West 298 343 35,100 960 Climbing Cleveland Center
08:54AM 40.1450 -78.1297 275° West 289 333 36,100 1,020 Climbing Cleveland Center
08:55AM 40.1528 -78.2500 275° West 280 322 37,300 900 Climbing Cleveland Center
08:56AM 40.1592 -78.3478 275° West 274 315 38,000 300 Climbing Cleveland Center
08:57AM 40.1664 -78.4478 275° West 276 318 38,000  Level Cleveland Center
08:58AM 40.1733 -78.5556 275° West 293 337 38,000  Level Cleveland Center
08:59AM 40.1817 -78.6669 276° West 308 354 38,000  Level Cleveland Center
09:00AM 40.1883 -78.7786 275° West 309 356 38,000  Level Cleveland Center
09:01AM 40.1956 -78.8894 275° West 308 354 38,000  Level Cleveland Center
09:02AM 40.2042 -79.0258 275° West 312 359 38,000  Level Cleveland Center
09:03AM 40.2119 -79.1378 275° West 310 357 38,000  Level Cleveland Center
09:04AM 40.2175 -79.2494 274° West 309 356 38,000  Level Cleveland Center
09:05AM 40.2242 -79.3703 274° West 309 356 38,000  Level Cleveland Center
09:06AM 40.2308 -79.4831 274° West 311 358 38,000  Level Cleveland Center
09:07AM 40.2375 -79.5975 274° West 315 362 38,000  Level Cleveland Center
09:08AM 40.2433 -79.7106 274° West 312 359 38,000  Level Cleveland Center
09:09AM 40.2489 -79.8250 274° West 315 362 38,000  Level Cleveland Center
09:10AM 40.2550 -79.9403 274° West 316 364 38,000  Level Cleveland Center
09:11AM 40.2611 -80.0567 274° West 317 365 38,000  Level Cleveland Center
09:12AM 40.2664 -80.1742 273° West 319 367 38,000  Level Cleveland Center
09:13AM 40.2747 -80.3144 274° West 317 365 38,000  Level Cleveland Center
09:15AM 40.2806 -80.4300 274° West 317 365 38,000  Level Cleveland Center
09:16AM 40.2861 -80.5464 274° West 320 368 38,000  Level Cleveland Center
09:17AM 40.2911 -80.6617 273° West 319 367 38,000  Level Cleveland Center
09:18AM 40.2972 -80.7767 274° West 318 366 38,000  Level Cleveland Center
09:19AM 40.3022 -80.8925 273° West 318 366 38,000  Level Cleveland Center
09:20AM 40.3072 -81.0083 273° West 319 367 38,000  Level Cleveland Center
09:21AM 40.3122 -81.1239 273° West 318 366 38,000  Level Cleveland Center
09:22AM 40.3186 -81.2633 273° West 321 369 38,000  Level Cleveland Center
09:23AM 40.3225 -81.3792 273° West 319 367 38,000  Level Cleveland Center
09:24AM 40.3269 -81.4928 273° West 316 364 38,000  Level Cleveland Center
09:25AM 40.3322 -81.6053 274° West 310 357 38,000  Level Cleveland Center
09:26AM 40.3356 -81.7211 272° West 312 359 38,000  Level Cleveland Center
09:27AM 40.3403 -81.8400 273° West 319 367 38,000  Level Cleveland Center
09:28AM 40.3439 -81.9539 272° West 313 360 38,000  Level Cleveland Center
09:29AM 40.3489 -82.0886 273° West 313 360 38,000  Level Cleveland Center
09:30AM 40.3531 -82.2036 273° West 313 360 38,000 -240 Level Cleveland Center
09:31AM 40.3564 -82.3172 272° West 308 354 37,600 -960 Descending Cleveland Center
09:32AM 40.3600 -82.4308 272° West 308 354 36,100 -1,320 Descending Cleveland Center
09:33AM 40.3625 -82.5344 272° West 288 331 35,000 -1,080 Descending Cleveland Center
09:34AM 40.3661 -82.6417 273° West 291 335 33,900 -1,560 Descending Cleveland Center
09:35AM 40.3694 -82.7556 272° West 306 352 31,800 -2,040 Descending Cleveland Center
09:36AM 40.3728 -82.8711 272° West 313 360 29,800 -1,860 Descending Cleveland Center
09:37AM 40.3767 -82.9889 273° West 320 368 28,000 -900 Descending Cleveland Center
09:38AM 40.3794 -83.1136 272° West 334 384 28,000 -360 Level Cleveland Center
09:40AM 40.3842 -83.2853 272° West 349 402 27,200 -840 Descending Indianapolis Center
09:41AM 40.3878 -83.4106 272° West 342 394 26,000 -600 Descending Indianapolis Center
09:42AM 40.3892 -83.5628 271° West 352 405 26,000  Level Indianapolis Center
09:43AM 40.3925 -83.6989 272° West 367 422 26,000  Level Indianapolis Center
09:44AM 40.3958 -83.8314 272° West 362 417 26,000  Level Indianapolis Center
09:45AM 40.3992 -83.9608 272° West 362 417 26,000  Level Indianapolis Center
09:46AM 40.4033 -84.0928 272° West 363 418 26,000  Level Indianapolis Center
09:47AM 40.4036 -84.2200 270° West 357 411 26,000  Level Indianapolis Center
09:48AM 40.4033 -84.3481 270° West 354 407 26,000  Level Indianapolis Center
09:49AM 40.4058 -84.5039 271° West 358 412 26,000 -780 Level Indianapolis Center
09:50AM 40.4078 -84.6356 271° West 362 417 24,500 -1,500 Descending Indianapolis Center
09:51AM 40.4089 -84.7625 271° West 353 406 22,900 -1,500 Descending Indianapolis Center
09:52AM 40.4086 -84.8908 270° West 354 407 21,400 -1,500 Descending Indianapolis Center
09:53AM 40.3856 -85.0097 256° West 341 392 19,900 -1,560 Descending Indianapolis Center
09:54AM 40.3617 -85.1269 255° West 335 386 18,300 -1,500 Descending Indianapolis Center
09:55AM 40.3378 -85.2619 257° West 322 371 16,800 -1,140 Descending Indianapolis Center
09:56AM 40.3167 -85.3736 256° West 319 367 16,000 -420 Descending Indianapolis Center
09:57AM 40.3147 -85.4869 269° West 320 368 16,000  Level Indianapolis Center
09:58AM 40.3228 -85.6031 275° West 323 372 16,000 -540 Level Indianapolis Center
09:59AM 40.3150 -85.7169 265° West 323 372 15,000 -1,020 Descending Indianapolis Center
10:00AM 40.3000 -85.8250 260° West 309 356 14,000 -1,080 Descending Indianapolis Center
10:01AM 40.2858 -85.9031 257° West 305 351 13,400 -1,440 Descending Chicago Center
10:01AM 40.2758 -85.9781 260° West 311 358 12,300 -1,620 Descending Chicago Center
10:02AM 40.2758 -86.0225 270° West 322 371 11,800 -1,560 Descending Chicago Center
10:02AM 40.2800 -86.0903 275° West 313 360 10,700 -1,620 Descending Chicago Center
10:03AM 40.2831 -86.1208 277° West 271 312 10,200 -1,800 Descending Chicago Center
10:03AM 40.2917 -86.1789 281° West 258 297 8,900 -2,100 Descending Chicago Center
10:04AM 40.2947 -86.2142 276° West 236 272 8,100 -2,160 Descending Chicago Center
10:04AM 40.3003 -86.2681 278° West 250 288 6,700 -2,220 Descending Chicago Center
10:05AM 40.3000 -86.3044 269° West 253 291 5,900 -2,160 Descending Chicago Center
10:06AM 40.3039 -86.3628 275° West 258 297 4,500 -1,920 Descending Chicago Center
10:06AM 40.3008 -86.4028 264° West 264 304 4,000 -600 Descending Chicago Center
10:07AM 40.3067 -86.4719 276° West 256 295 3,900 -300 Descending Chicago Center
10:07AM 40.3103 -86.4931 283° West 238 274 3,700 -900 Descending Chicago Center
10:08AM 40.3214 -86.5564 283° West 249 287 3,000 -840 Descending Chicago Center
10:08AM 40.3264 -86.5733 291° West 231 266 2,900 -120 Descending Chicago Center
10:09AM 40.3517 -86.6211 305° West 224 258 2,900  Level Chicago Center
10:09AM 40.3572 -86.6406 291° West 197 227 2,900  Level Chicago Center
10:10AM 40.3800 -86.6806 307° West 205 236 2,900 -120 Level Chicago Center
10:10AM 40.3803 -86.6992 271° West 185 213 2,800 -120 Descending Chicago Center
10:11AM 40.3881 -86.7467 282° West 192 221 2,800 60 Level Chicago Center
10:11AM 40.3903 -86.7656 279° West 176 203 2,900 -420 Climbing Chicago Center
10:12AM 40.3969 -86.8103 281° West 171 197 2,400 -600 Descending Chicago Center
10:12AM 40.3967 -86.8150 266° West 136 157 2,300 -240 Descending Chicago Center
10:13AM 40.4028 -86.8631 279° West 167 192 2,200 -840 Descending Chicago Center
10:13AM 40.4031 -86.8644 285° West 131 151 1,500 -8,400 Descending Chicago Center
10:15AM 40.4000 -86.9333 277° West  Level FlightAware Approximate